createdAt,value
2022-07-25T00:01:57.038Z,0.00
2022-07-25T00:03:56.934Z,0.00
2022-07-25T00:04:56.935Z,0.00
2022-07-25T00:05:57.182Z,0.00
2022-07-25T00:06:56.921Z,0.00
2022-07-25T00:07:56.955Z,0.00
2022-07-25T00:08:56.987Z,0.00
2022-07-25T00:09:57.021Z,0.00
2022-07-25T00:10:57.065Z,0.00
2022-07-25T00:11:57.097Z,0.00
2022-07-25T00:12:57.429Z,0.00
2022-07-25T00:13:57.157Z,0.00
2022-07-25T00:14:57.189Z,0.00
2022-07-25T00:15:57.309Z,0.00
2022-07-25T00:16:57.256Z,0.00
2022-07-25T00:17:57.290Z,0.00
2022-07-25T00:18:57.328Z,0.00
2022-07-25T00:19:57.671Z,0.00
2022-07-25T00:20:57.393Z,0.00
2022-07-25T00:21:57.433Z,0.00
2022-07-25T00:22:57.466Z,0.00
2022-07-25T00:23:57.498Z,0.00
2022-07-25T00:24:57.546Z,0.00
2022-07-25T00:25:57.564Z,0.00
2022-07-25T00:26:57.849Z,0.00
2022-07-25T00:27:57.631Z,0.00
2022-07-25T00:28:57.718Z,0.00
2022-07-25T00:29:57.703Z,0.00
2022-07-25T00:30:57.822Z,0.00
2022-07-25T00:31:57.765Z,0.00
2022-07-25T00:32:57.800Z,0.00
2022-07-25T00:33:58.133Z,0.00
2022-07-25T00:34:57.872Z,0.00
2022-07-25T00:35:57.905Z,0.00
2022-07-25T00:36:57.938Z,0.00
2022-07-25T00:37:57.971Z,0.00
2022-07-25T00:38:58.005Z,0.00
2022-07-25T00:39:58.040Z,0.00
2022-07-25T00:40:58.376Z,0.00
2022-07-25T00:42:58.143Z,0.00
2022-07-25T00:44:58.314Z,0.00
2022-07-25T00:45:58.316Z,0.00
2022-07-25T00:46:58.339Z,0.00
2022-07-25T00:47:58.567Z,0.00
2022-07-25T00:48:58.503Z,0.00
2022-07-25T00:49:58.378Z,0.00
2022-07-25T00:50:58.411Z,0.00
2022-07-25T00:52:58.485Z,0.00
2022-07-25T00:53:58.514Z,0.00
2022-07-25T00:54:58.853Z,0.00
2022-07-25T00:55:58.583Z,0.00
2022-07-25T00:56:58.618Z,0.00
2022-07-25T00:57:58.649Z,0.00
2022-07-25T00:58:58.683Z,0.00
2022-07-25T00:59:58.723Z,0.00
2022-07-25T01:00:58.876Z,0.00
2022-07-25T01:02:59.141Z,0.00
2022-07-25T01:04:58.891Z,0.00
2022-07-25T01:05:58.922Z,0.00
2022-07-25T01:07:58.989Z,0.00
2022-07-25T01:08:59.032Z,0.00
2022-07-25T01:09:59.356Z,0.00
2022-07-25T01:10:59.091Z,0.00
2022-07-25T01:11:59.224Z,0.00
2022-07-25T01:12:59.161Z,0.00
2022-07-25T01:13:59.190Z,0.00
2022-07-25T01:14:59.250Z,0.00
2022-07-25T01:15:59.292Z,0.00
2022-07-25T01:16:59.593Z,0.00
2022-07-25T01:17:59.733Z,0.00
2022-07-25T01:18:59.367Z,0.00
2022-07-25T01:19:59.394Z,0.00
2022-07-25T01:20:59.423Z,0.00
2022-07-25T01:21:59.570Z,0.00
2022-07-25T01:22:59.493Z,0.00
2022-07-25T01:23:59.836Z,0.00
2022-07-25T01:24:59.575Z,0.00
2022-07-25T01:25:59.604Z,0.00
2022-07-25T01:26:59.631Z,0.00
2022-07-25T01:28:59.700Z,0.00
2022-07-25T01:29:59.734Z,0.00
2022-07-25T01:31:00.098Z,0.00
2022-07-25T01:31:59.800Z,0.00
2022-07-25T01:32:59.964Z,0.00
2022-07-25T01:33:59.864Z,0.00
2022-07-25T01:34:59.899Z,0.00
2022-07-25T01:35:59.940Z,0.00
2022-07-25T01:37:00.268Z,0.00
2022-07-25T01:37:59.999Z,0.00
2022-07-25T01:39:00.039Z,0.00
2022-07-25T01:40:00.071Z,0.00
2022-07-25T01:41:00.104Z,0.00
2022-07-25T01:42:00.146Z,0.00
2022-07-25T01:43:00.418Z,0.00
2022-07-25T01:44:00.205Z,0.00
2022-07-25T01:45:00.234Z,0.00
2022-07-25T01:46:00.414Z,0.00
2022-07-25T01:47:00.308Z,0.00
2022-07-25T01:48:00.340Z,0.00
2022-07-25T01:49:00.773Z,0.00
2022-07-25T01:51:00.438Z,0.00
2022-07-25T01:52:00.472Z,0.00
2022-07-25T01:53:00.508Z,0.00
2022-07-25T01:54:00.547Z,0.00
2022-07-25T01:55:00.581Z,0.00
2022-07-25T01:56:00.908Z,0.00
2022-07-25T01:57:00.640Z,0.00
2022-07-25T01:58:00.674Z,0.00
2022-07-25T01:59:00.709Z,0.00
2022-07-25T02:00:00.748Z,0.00
2022-07-25T02:01:00.848Z,0.00
2022-07-25T02:02:00.872Z,0.00
2022-07-25T02:03:01.149Z,0.00
2022-07-25T02:04:00.997Z,0.00
2022-07-25T02:05:01.083Z,0.00
2022-07-25T02:06:00.944Z,0.00
2022-07-25T02:07:00.975Z,0.00
2022-07-25T02:08:01.011Z,0.00
2022-07-25T02:10:01.081Z,0.00
2022-07-25T02:11:01.366Z,0.00
2022-07-25T02:12:01.141Z,0.00
2022-07-25T02:13:01.180Z,0.00
2022-07-25T02:14:01.213Z,0.00
2022-07-25T02:15:01.248Z,0.00
2022-07-25T02:16:01.384Z,0.00
2022-07-25T02:17:01.397Z,0.00
2022-07-25T02:18:01.597Z,0.00
2022-07-25T02:19:01.382Z,0.00
2022-07-25T02:22:01.491Z,0.00
2022-07-25T02:23:01.517Z,0.00
2022-07-25T02:24:01.547Z,0.00
2022-07-25T02:25:01.887Z,0.00
2022-07-25T02:26:01.612Z,0.00
2022-07-25T02:27:01.647Z,0.00
2022-07-25T02:28:01.681Z,0.00
2022-07-25T02:29:01.721Z,0.00
2022-07-25T02:30:01.747Z,0.00
2022-07-25T02:31:01.849Z,0.00
2022-07-25T02:32:02.114Z,0.00
2022-07-25T02:33:01.850Z,0.00
2022-07-25T02:34:01.884Z,0.00
2022-07-25T02:35:01.919Z,0.00
2022-07-25T02:36:01.950Z,0.00
2022-07-25T02:38:02.067Z,0.00
2022-07-25T02:39:02.351Z,0.00
2022-07-25T02:40:02.086Z,0.00
2022-07-25T02:41:02.129Z,0.00
2022-07-25T02:42:02.160Z,0.00
2022-07-25T02:43:02.193Z,0.00
2022-07-25T02:44:02.215Z,0.00
2022-07-25T02:45:02.253Z,0.00
2022-07-25T02:46:02.680Z,0.00
2022-07-25T02:47:02.318Z,0.00
2022-07-25T02:48:02.360Z,0.00
2022-07-25T02:49:02.422Z,0.00
2022-07-25T02:50:02.463Z,0.00
2022-07-25T02:51:02.473Z,0.00
2022-07-25T02:52:02.490Z,0.00
2022-07-25T02:53:02.768Z,0.00
2022-07-25T02:54:02.553Z,0.00
2022-07-25T02:55:08.962Z,0.00
2022-07-25T02:56:02.619Z,0.00
2022-07-25T02:57:02.665Z,0.00
2022-07-25T02:59:02.720Z,0.00
2022-07-25T03:00:03.006Z,0.00
2022-07-25T03:01:02.864Z,0.00
2022-07-25T03:02:02.821Z,0.00
2022-07-25T03:03:02.859Z,0.00
2022-07-25T03:04:03.115Z,0.00
2022-07-25T03:05:02.925Z,0.00
2022-07-25T03:06:02.956Z,0.00
2022-07-25T03:07:03.293Z,0.00
2022-07-25T03:08:03.021Z,0.00
2022-07-25T03:09:03.055Z,0.00
2022-07-25T03:10:03.088Z,0.00
2022-07-25T03:11:03.122Z,0.00
2022-07-25T03:13:03.188Z,0.00
2022-07-25T03:14:03.678Z,0.00
2022-07-25T03:15:03.253Z,0.00
2022-07-25T03:16:03.296Z,0.00
2022-07-25T03:17:03.364Z,4.00
2022-07-25T03:18:03.356Z,4.00
2022-07-25T03:20:03.421Z,4.00
2022-07-25T03:22:03.786Z,4.00
2022-07-25T03:24:03.571Z,8.00
2022-07-25T03:25:03.596Z,4.00
2022-07-25T03:26:03.621Z,8.00
2022-07-25T03:27:03.653Z,8.00
2022-07-25T03:28:03.688Z,8.00
2022-07-25T03:29:03.970Z,8.00
2022-07-25T03:30:03.855Z,12.00
2022-07-25T03:31:03.788Z,12.00
2022-07-25T03:32:03.908Z,16.00
2022-07-25T03:33:03.868Z,16.00
2022-07-25T03:34:04.310Z,16.00
2022-07-25T03:35:03.925Z,24.00
2022-07-25T03:36:04.258Z,24.00
2022-07-25T03:37:03.990Z,28.00
2022-07-25T03:38:04.025Z,32.00
2022-07-25T03:39:05.484Z,36.00
2022-07-25T03:40:04.086Z,40.00
2022-07-25T03:42:04.159Z,52.00
2022-07-25T03:43:04.440Z,60.00
2022-07-25T03:44:04.655Z,64.00
2022-07-25T03:45:04.260Z,72.00
2022-07-25T03:46:04.394Z,80.00
2022-07-25T03:47:04.331Z,88.00
2022-07-25T03:48:04.360Z,92.00
2022-07-25T03:49:04.534Z,100.00
2022-07-25T03:50:04.672Z,104.00
2022-07-25T03:51:07.010Z,112.00
2022-07-25T03:52:04.492Z,120.00
2022-07-25T03:53:04.529Z,128.00
2022-07-25T03:54:05.060Z,136.00
2022-07-25T03:55:04.592Z,148.00
2022-07-25T03:56:04.621Z,156.00
2022-07-25T03:57:04.905Z,168.00
2022-07-25T03:58:04.685Z,180.00
2022-07-25T03:59:04.718Z,196.00
2022-07-25T04:00:04.759Z,216.00
2022-07-25T04:01:04.895Z,236.00
2022-07-25T04:03:04.852Z,284.00
2022-07-25T04:04:05.610Z,308.00
2022-07-25T04:05:04.921Z,336.00
2022-07-25T04:06:05.054Z,360.00
2022-07-25T04:07:04.986Z,388.00
2022-07-25T04:08:05.020Z,412.00
2022-07-25T04:09:05.052Z,436.00
2022-07-25T04:10:05.388Z,452.00
2022-07-25T04:11:05.117Z,456.00
2022-07-25T04:12:05.152Z,464.00
2022-07-25T04:13:05.183Z,468.00
2022-07-25T04:15:05.253Z,492.00
2022-07-25T04:16:05.591Z,500.00
2022-07-25T04:17:05.389Z,508.00
2022-07-25T04:18:05.357Z,520.00
2022-07-25T04:19:05.386Z,528.00
2022-07-25T04:20:05.617Z,544.00
2022-07-25T04:21:05.451Z,568.00
2022-07-25T04:22:05.736Z,600.00
2022-07-25T04:23:05.522Z,636.00
2022-07-25T04:25:05.585Z,688.00
2022-07-25T04:26:05.618Z,700.00
2022-07-25T04:27:05.650Z,700.00
2022-07-25T04:28:05.692Z,700.00
2022-07-25T04:29:05.970Z,708.00
2022-07-25T04:30:05.754Z,724.00
2022-07-25T04:31:05.784Z,744.00
2022-07-25T04:33:05.855Z,784.00
2022-07-25T04:34:06.377Z,808.00
2022-07-25T04:35:05.926Z,828.00
2022-07-25T04:36:06.202Z,844.00
2022-07-25T04:37:05.994Z,864.00
2022-07-25T04:38:10.209Z,884.00
2022-07-25T04:39:06.051Z,908.00
2022-07-25T04:40:06.082Z,936.00
2022-07-25T04:41:06.117Z,960.00
2022-07-25T04:42:06.153Z,984.00
2022-07-25T04:43:06.489Z,996.00
2022-07-25T04:44:06.526Z,1004.00
2022-07-25T04:45:06.249Z,1012.00
2022-07-25T04:46:06.380Z,1028.00
2022-07-25T04:47:06.319Z,1064.00
2022-07-25T04:48:06.351Z,1096.00
2022-07-25T04:49:06.442Z,1120.00
2022-07-25T04:50:06.716Z,1124.00
2022-07-25T04:51:06.451Z,1116.00
2022-07-25T04:52:06.484Z,1112.00
2022-07-25T04:53:06.516Z,1104.00
2022-07-25T04:54:06.905Z,1084.00
2022-07-25T04:55:06.584Z,1060.00
2022-07-25T04:56:06.620Z,1024.00
2022-07-25T04:57:06.950Z,988.00
2022-07-25T04:58:06.685Z,964.00
2022-07-25T04:59:07.309Z,932.00
2022-07-25T05:00:06.747Z,908.00
2022-07-25T05:01:06.871Z,920.00
2022-07-25T05:02:06.894Z,904.00
2022-07-25T05:03:06.851Z,904.00
2022-07-25T05:04:07.577Z,912.00
2022-07-25T05:05:06.920Z,932.00
2022-07-25T05:06:06.952Z,952.00
2022-07-25T05:07:07.085Z,1016.00
2022-07-25T05:08:07.024Z,1080.00
2022-07-25T05:09:07.054Z,1116.00
2022-07-25T05:10:07.087Z,1180.00
2022-07-25T05:11:07.426Z,1192.00
2022-07-25T05:12:07.148Z,1240.00
2022-07-25T05:13:07.180Z,1236.00
2022-07-25T05:14:07.732Z,1204.00
2022-07-25T05:15:07.248Z,1192.00
2022-07-25T05:16:07.354Z,1168.00
2022-07-25T05:17:07.322Z,1164.00
2022-07-25T05:18:07.655Z,1164.00
2022-07-25T05:19:07.400Z,1156.00
2022-07-25T05:20:07.450Z,1148.00
2022-07-25T05:21:07.455Z,1132.00
2022-07-25T05:22:07.486Z,1116.00
2022-07-25T05:23:07.513Z,1112.00
2022-07-25T05:24:07.956Z,1132.00
2022-07-25T05:25:07.849Z,1136.00
2022-07-25T05:27:07.651Z,1216.00
2022-07-25T05:28:07.682Z,1236.00
2022-07-25T05:29:07.717Z,1236.00
2022-07-25T05:30:07.746Z,1252.00
2022-07-25T05:31:07.849Z,1248.00
2022-07-25T05:32:08.070Z,1252.00
2022-07-25T05:33:07.856Z,1236.00
2022-07-25T05:34:08.258Z,1216.00
2022-07-25T05:35:07.971Z,1204.00
2022-07-25T05:36:07.947Z,1200.00
2022-07-25T05:37:07.981Z,1208.00
2022-07-25T05:38:08.018Z,1232.00
2022-07-25T05:39:08.357Z,1272.00
2022-07-25T05:40:08.082Z,1332.00
2022-07-25T05:41:08.117Z,1396.00
2022-07-25T05:42:08.148Z,1456.00
2022-07-25T05:43:08.188Z,1512.00
2022-07-25T05:44:08.582Z,1560.00
2022-07-25T05:45:08.254Z,1612.00
2022-07-25T05:46:08.584Z,1656.00
2022-07-25T05:47:08.352Z,1708.00
2022-07-25T05:48:08.351Z,1764.00
2022-07-25T05:49:08.429Z,1812.00
2022-07-25T05:50:08.418Z,1872.00
2022-07-25T05:52:12.863Z,1996.00
2022-07-25T05:53:08.763Z,1976.00
2022-07-25T05:54:09.045Z,1980.00
2022-07-25T05:55:08.586Z,2020.00
2022-07-25T05:56:08.613Z,2024.00
2022-07-25T05:57:08.749Z,2056.00
2022-07-25T05:58:08.678Z,2068.00
2022-07-25T05:59:09.113Z,2008.00
2022-07-25T06:00:08.752Z,1952.00
2022-07-25T06:01:08.783Z,1908.00
2022-07-25T06:02:08.935Z,1840.00
2022-07-25T06:03:08.943Z,1764.00
2022-07-25T06:04:09.306Z,1744.00
2022-07-25T06:05:09.216Z,1740.00
2022-07-25T06:08:09.115Z,1904.00
2022-07-25T06:09:09.049Z,1928.00
2022-07-25T06:10:09.081Z,1952.00
2022-07-25T06:11:09.369Z,1932.00
2022-07-25T06:12:09.153Z,1912.00
2022-07-25T06:13:09.185Z,1916.00
2022-07-25T06:14:09.679Z,1868.00
2022-07-25T06:15:17.721Z,1844.00
2022-07-25T06:16:09.359Z,1824.00
2022-07-25T06:17:09.317Z,1844.00
2022-07-25T06:18:09.604Z,1876.00
2022-07-25T06:19:09.389Z,1988.00
2022-07-25T06:20:09.416Z,2100.00
2022-07-25T06:21:09.464Z,2256.00
2022-07-25T06:22:09.493Z,2324.00
2022-07-25T06:23:09.516Z,2416.00
2022-07-25T06:24:09.804Z,2544.00
2022-07-25T06:25:09.585Z,2652.00
2022-07-25T06:26:09.625Z,2708.00
2022-07-25T06:27:09.653Z,2796.00
2022-07-25T06:28:11.145Z,2804.00
2022-07-25T06:30:19.305Z,2792.00
2022-07-25T06:31:10.218Z,2728.00
2022-07-25T06:32:09.824Z,2684.00
2022-07-25T06:33:09.854Z,2624.00
2022-07-25T06:34:10.382Z,2592.00
2022-07-25T06:35:09.962Z,2572.00
2022-07-25T06:36:09.957Z,2564.00
2022-07-25T06:38:10.281Z,2712.00
2022-07-25T06:39:10.068Z,2760.00
2022-07-25T06:40:10.370Z,2800.00
2022-07-25T06:41:10.125Z,2856.00
2022-07-25T06:42:10.186Z,2896.00
2022-07-25T06:43:10.292Z,2924.00
2022-07-25T06:44:10.393Z,2928.00
2022-07-25T06:45:10.578Z,2864.00
2022-07-25T06:46:10.311Z,2888.00
2022-07-25T06:47:10.450Z,2880.00
2022-07-25T06:48:10.363Z,2884.00
2022-07-25T06:49:10.553Z,2916.00
2022-07-25T06:50:11.306Z,2964.00
2022-07-25T06:51:10.462Z,3016.00
2022-07-25T06:52:10.747Z,3088.00
2022-07-25T06:53:10.532Z,3148.00
2022-07-25T06:55:10.603Z,3120.00
2022-07-25T06:58:10.950Z,3248.00
2022-07-25T07:00:10.766Z,3324.00
2022-07-25T07:01:10.939Z,3356.00
2022-07-25T07:02:10.837Z,3336.00
2022-07-25T07:03:11.023Z,3352.00
2022-07-25T07:04:11.152Z,3400.00
2022-07-25T07:05:10.941Z,3424.00
2022-07-25T07:06:10.969Z,3452.00
2022-07-25T07:07:11.004Z,3476.00
2022-07-25T07:08:11.046Z,3480.00
2022-07-25T07:09:11.073Z,3500.00
2022-07-25T07:10:11.409Z,3576.00
2022-07-25T07:11:11.147Z,3708.00
2022-07-25T07:12:11.237Z,3856.00
2022-07-25T07:13:11.210Z,3912.00
2022-07-25T07:14:11.266Z,3836.00
2022-07-25T07:15:11.280Z,3688.00
2022-07-25T07:16:11.677Z,3556.00
2022-07-25T07:17:11.373Z,3476.00
2022-07-25T07:18:11.387Z,3424.00
2022-07-25T07:19:11.422Z,3380.00
2022-07-25T07:20:11.460Z,3324.00
2022-07-25T07:21:11.482Z,3328.00
2022-07-25T07:22:11.512Z,3360.00
2022-07-25T07:23:11.853Z,3396.00
2022-07-25T07:24:24.482Z,3408.00
2022-07-25T07:25:11.629Z,3404.00
2022-07-25T07:26:11.671Z,3432.00
2022-07-25T07:27:11.688Z,3484.00
2022-07-25T07:28:11.724Z,3540.00
2022-07-25T07:29:11.757Z,3560.00
2022-07-25T07:30:12.092Z,3556.00
2022-07-25T07:31:16.851Z,3572.00
2022-07-25T07:32:11.909Z,3636.00
2022-07-25T07:33:11.901Z,3740.00
2022-07-25T07:34:11.938Z,3908.00
2022-07-25T07:35:12.061Z,4100.00
2022-07-25T07:36:11.995Z,4300.00
2022-07-25T07:37:12.029Z,4500.00
2022-07-25T07:38:12.063Z,4608.00
2022-07-25T07:39:12.103Z,4708.00
2022-07-25T07:40:17.005Z,4768.00
2022-07-25T07:41:12.177Z,4792.00
2022-07-25T07:42:12.200Z,4804.00
2022-07-25T07:43:12.539Z,4824.00
2022-07-25T07:44:12.281Z,4788.00
2022-07-25T07:45:12.334Z,4720.00
2022-07-25T07:46:12.398Z,4576.00
2022-07-25T07:47:14.505Z,4456.00
2022-07-25T07:48:12.507Z,4348.00
2022-07-25T07:49:12.600Z,4264.00
2022-07-25T07:51:12.770Z,4220.00
2022-07-25T07:52:12.549Z,4216.00
2022-07-25T07:53:12.583Z,4208.00
2022-07-25T07:54:12.619Z,4224.00
2022-07-25T07:55:12.651Z,4220.00
2022-07-25T07:56:12.689Z,4204.00
2022-07-25T07:57:12.721Z,4244.00
2022-07-25T07:58:13.063Z,4272.00
2022-07-25T07:59:12.786Z,4300.00
2022-07-25T08:00:16.512Z,4316.00
2022-07-25T08:01:12.865Z,4316.00
2022-07-25T08:02:12.948Z,4316.00
2022-07-25T08:04:13.266Z,4312.00
2022-07-25T08:05:12.995Z,4344.00
2022-07-25T08:06:13.034Z,4384.00
2022-07-25T08:07:13.092Z,4376.00
2022-07-25T08:08:13.102Z,4320.00
2022-07-25T08:09:13.131Z,4228.00
2022-07-25T08:10:13.470Z,4164.00
2022-07-25T08:11:13.212Z,4112.00
2022-07-25T08:12:13.234Z,4084.00
2022-07-25T08:14:13.304Z,3972.00
2022-07-25T08:15:13.350Z,3916.00
2022-07-25T08:16:13.804Z,3804.00
2022-07-25T08:17:13.406Z,3704.00
2022-07-25T08:18:17.005Z,3660.00
2022-07-25T08:19:13.485Z,3644.00
2022-07-25T08:20:35.662Z,3584.00
2022-07-25T08:21:13.646Z,3464.00
2022-07-25T08:22:13.852Z,3252.00
2022-07-25T08:24:13.656Z,2968.00
2022-07-25T08:25:13.686Z,2980.00
2022-07-25T08:26:13.719Z,2956.00
2022-07-25T08:27:13.766Z,2888.00
2022-07-25T08:28:13.790Z,2924.00
2022-07-25T08:29:25.070Z,3128.00
2022-07-25T08:30:13.857Z,3328.00
2022-07-25T08:31:13.991Z,3456.00
2022-07-25T08:32:13.931Z,3560.00
2022-07-25T08:33:13.992Z,3692.00
2022-07-25T08:34:14.000Z,3740.00
2022-07-25T08:35:14.029Z,3712.00
2022-07-25T08:36:14.318Z,3668.00
2022-07-25T08:37:14.108Z,3624.00
2022-07-25T08:38:14.138Z,3588.00
2022-07-25T08:39:14.271Z,3512.00
2022-07-25T08:40:14.225Z,3408.00
2022-07-25T08:41:14.239Z,3320.00
2022-07-25T08:42:14.281Z,3244.00
2022-07-25T08:43:14.575Z,3264.00
2022-07-25T08:44:14.348Z,3324.00
2022-07-25T08:45:14.377Z,3272.00
2022-07-25T08:46:14.479Z,3056.00
2022-07-25T08:47:14.558Z,2868.00
2022-07-25T08:48:14.483Z,2860.00
2022-07-25T08:49:14.623Z,2992.00
2022-07-25T08:50:14.890Z,3204.00
2022-07-25T08:51:14.589Z,3548.00
2022-07-25T08:52:14.636Z,3888.00
2022-07-25T08:53:32.573Z,4076.00
2022-07-25T08:54:14.692Z,4080.00
2022-07-25T08:55:14.727Z,4056.00
2022-07-25T08:56:19.003Z,4108.00
2022-07-25T08:57:15.047Z,4232.00
2022-07-25T08:58:14.839Z,4372.00
2022-07-25T08:59:14.866Z,4472.00
2022-07-25T09:00:14.904Z,4464.00
2022-07-25T09:02:15.145Z,4404.00
2022-07-25T09:03:15.100Z,4248.00
2022-07-25T09:04:15.291Z,3860.00
2022-07-25T09:05:15.076Z,3684.00
2022-07-25T09:06:15.115Z,3380.00
2022-07-25T09:07:15.246Z,3360.00
2022-07-25T09:08:15.190Z,3716.00
2022-07-25T09:09:15.268Z,4088.00
2022-07-25T09:10:15.258Z,4396.00
2022-07-25T09:11:15.588Z,4468.00
2022-07-25T09:12:15.328Z,4376.00
2022-07-25T09:13:15.353Z,4264.00
2022-07-25T09:14:15.627Z,4224.00
2022-07-25T09:15:15.467Z,3996.00
2022-07-25T09:16:15.510Z,3736.00
2022-07-25T09:17:22.659Z,3644.00
2022-07-25T09:18:15.952Z,3680.00
2022-07-25T09:19:15.565Z,3804.00
2022-07-25T09:20:18.490Z,3816.00
2022-07-25T09:21:15.638Z,3844.00
2022-07-25T09:22:15.669Z,3796.00
2022-07-25T09:23:15.728Z,3836.00
2022-07-25T09:24:16.182Z,4024.00
2022-07-25T09:25:15.775Z,4328.00
2022-07-25T09:26:15.813Z,4644.00
2022-07-25T09:27:15.847Z,5144.00
2022-07-25T09:28:15.878Z,5256.00
2022-07-25T09:29:16.368Z,5112.00
2022-07-25T09:30:16.253Z,4776.00
2022-07-25T09:32:16.018Z,4212.00
2022-07-25T09:33:16.053Z,4244.00
2022-07-25T09:34:16.090Z,4388.00
2022-07-25T09:35:16.131Z,4680.00
2022-07-25T09:36:16.459Z,4800.00
2022-07-25T09:37:16.196Z,4544.00
2022-07-25T09:38:16.235Z,4112.00
2022-07-25T09:41:16.333Z,3712.00
2022-07-25T09:42:16.692Z,3628.00
2022-07-25T09:43:16.522Z,3508.00
2022-07-25T09:44:16.445Z,3312.00
2022-07-25T09:45:16.475Z,3000.00
2022-07-25T09:46:16.576Z,2672.00
2022-07-25T09:47:16.548Z,2380.00
2022-07-25T09:48:16.600Z,2184.00
2022-07-25T09:49:16.685Z,2068.00
2022-07-25T09:50:16.649Z,2016.00
2022-07-25T09:51:16.684Z,2040.00
2022-07-25T09:52:16.762Z,2036.00
2022-07-25T09:53:16.755Z,1904.00
2022-07-25T09:54:16.790Z,1800.00
2022-07-25T09:55:17.124Z,1772.00
2022-07-25T09:56:16.864Z,1800.00
2022-07-25T09:57:16.894Z,1736.00
2022-07-25T09:58:16.937Z,1608.00
2022-07-25T09:59:16.962Z,1584.00
2022-07-25T10:00:19.515Z,1652.00
2022-07-25T10:01:17.196Z,1804.00
2022-07-25T10:02:17.356Z,2024.00
2022-07-25T10:03:17.101Z,2180.00
2022-07-25T10:04:17.142Z,2176.00
2022-07-25T10:05:17.168Z,2084.00
2022-07-25T10:06:17.717Z,1980.00
2022-07-25T10:07:17.253Z,1900.00
2022-07-25T10:09:17.575Z,1740.00
2022-07-25T10:10:17.352Z,1672.00
2022-07-25T10:11:17.380Z,1600.00
2022-07-25T10:12:17.419Z,1564.00
2022-07-25T10:13:17.452Z,1544.00
2022-07-25T10:14:18.190Z,1556.00
2022-07-25T10:15:17.625Z,1608.00
2022-07-25T10:16:17.959Z,1708.00
2022-07-25T10:17:17.625Z,1836.00
2022-07-25T10:18:17.625Z,1976.00
2022-07-25T10:19:17.660Z,2132.00
2022-07-25T10:20:17.696Z,2140.00
2022-07-25T10:21:26.325Z,2056.00
2022-07-25T10:22:29.444Z,1968.00
2022-07-25T10:23:18.058Z,1896.00
2022-07-25T10:24:17.837Z,1888.00
2022-07-25T10:25:17.868Z,1944.00
2022-07-25T10:26:17.904Z,2124.00
2022-07-25T10:27:18.006Z,2420.00
2022-07-25T10:28:17.974Z,2740.00
2022-07-25T10:31:18.401Z,3512.00
2022-07-25T10:32:18.119Z,3568.00
2022-07-25T10:33:18.160Z,3664.00
2022-07-25T10:34:18.182Z,3800.00
2022-07-25T10:35:18.222Z,3912.00
2022-07-25T10:36:18.260Z,4160.00
2022-07-25T10:37:18.289Z,4428.00
2022-07-25T10:38:18.572Z,4820.00
2022-07-25T10:39:18.356Z,4696.00
2022-07-25T10:40:18.394Z,4388.00
2022-07-25T10:41:18.463Z,4240.00
2022-07-25T10:42:18.459Z,3956.00
2022-07-25T10:43:18.498Z,3436.00
2022-07-25T10:44:18.531Z,3228.00
2022-07-25T10:45:18.567Z,3420.00
2022-07-25T10:46:18.682Z,3912.00
2022-07-25T10:47:18.788Z,4000.00
2022-07-25T10:48:18.669Z,4312.00
2022-07-25T10:49:18.750Z,4648.00
2022-07-25T10:50:34.636Z,4668.00
2022-07-25T10:51:19.082Z,4336.00
2022-07-25T10:52:18.807Z,4020.00
2022-07-25T10:53:18.841Z,4120.00
2022-07-25T10:54:18.879Z,4356.00
2022-07-25T10:56:18.950Z,4704.00
2022-07-25T10:58:19.476Z,4960.00
2022-07-25T10:59:19.052Z,4448.00
2022-07-25T11:01:19.179Z,4160.00
2022-07-25T11:02:19.263Z,3808.00
2022-07-25T11:03:19.197Z,3568.00
2022-07-25T11:04:19.491Z,3624.00
2022-07-25T11:05:19.271Z,4276.00
2022-07-25T11:06:19.299Z,4852.00
2022-07-25T11:07:19.343Z,4880.00
2022-07-25T11:08:22.632Z,4668.00
2022-07-25T11:09:23.806Z,4488.00
2022-07-25T11:10:19.739Z,4404.00
2022-07-25T11:11:19.470Z,4512.00
2022-07-25T11:12:19.513Z,4652.00
2022-07-25T11:13:19.545Z,4916.00
2022-07-25T11:14:19.585Z,5104.00
2022-07-25T11:15:19.610Z,5320.00
2022-07-25T11:16:19.690Z,5452.00
2022-07-25T11:17:20.129Z,5716.00
2022-07-25T11:19:19.816Z,5800.00
2022-07-25T11:20:19.787Z,5660.00
2022-07-25T11:22:19.857Z,5380.00
2022-07-25T11:23:19.894Z,5400.00
2022-07-25T11:24:20.187Z,5536.00
2022-07-25T11:25:19.967Z,5868.00
2022-07-25T11:26:19.996Z,5692.00
2022-07-25T11:27:20.038Z,5756.00
2022-07-25T11:28:20.065Z,5676.00
2022-07-25T11:29:20.102Z,5940.00
2022-07-25T11:30:20.142Z,6036.00
2022-07-25T11:31:20.535Z,5824.00
2022-07-25T11:32:20.397Z,5252.00
2022-07-25T11:33:20.242Z,4812.00
2022-07-25T11:34:20.284Z,4700.00
2022-07-25T11:35:20.314Z,4536.00
2022-07-25T11:36:20.352Z,4600.00
2022-07-25T11:37:20.381Z,4612.00
2022-07-25T11:38:20.722Z,4784.00
2022-07-25T11:39:20.454Z,5076.00
2022-07-25T11:40:20.494Z,5132.00
2022-07-25T11:41:20.526Z,5212.00
2022-07-25T11:42:20.560Z,5496.00
2022-07-25T11:44:20.933Z,5704.00
2022-07-25T11:45:20.662Z,5776.00
2022-07-25T11:46:20.782Z,5940.00
2022-07-25T11:47:20.741Z,5676.00
2022-07-25T11:48:20.771Z,5512.00
2022-07-25T11:49:20.904Z,5544.00
2022-07-25T11:50:20.844Z,5740.00
2022-07-25T11:51:21.176Z,5644.00
2022-07-25T11:52:20.914Z,5232.00
2022-07-25T11:53:20.942Z,5424.00
2022-07-25T11:54:20.980Z,5940.00
2022-07-25T11:55:21.016Z,5988.00
2022-07-25T11:56:43.768Z,5804.00
2022-07-25T11:57:21.084Z,5512.00
2022-07-25T11:58:21.369Z,5872.00
2022-07-25T11:59:21.155Z,6028.00
2022-07-25T12:00:21.195Z,5896.00
2022-07-25T12:01:21.227Z,5748.00
2022-07-25T12:02:21.361Z,6116.00
2022-07-25T12:03:21.525Z,6348.00
2022-07-25T12:04:21.335Z,5868.00
2022-07-25T12:05:21.654Z,6100.00
2022-07-25T12:07:21.432Z,6016.00
2022-07-25T12:08:21.480Z,6116.00
2022-07-25T12:09:21.519Z,5912.00
2022-07-25T12:10:21.559Z,5688.00
2022-07-25T12:11:21.579Z,5100.00
2022-07-25T12:12:21.918Z,4764.00
2022-07-25T12:13:21.650Z,5156.00
2022-07-25T12:14:21.686Z,5268.00
2022-07-25T12:15:21.715Z,5424.00
2022-07-25T12:16:21.794Z,5840.00
2022-07-25T12:17:21.818Z,6708.00
2022-07-25T12:18:22.078Z,6912.00
2022-07-25T12:20:21.902Z,6468.00
2022-07-25T12:21:21.986Z,6704.00
2022-07-25T12:22:21.966Z,6632.00
2022-07-25T12:23:22.176Z,6620.00
2022-07-25T12:24:22.338Z,6592.00
2022-07-25T12:25:22.077Z,6372.00
2022-07-25T12:26:22.106Z,6220.00
2022-07-25T12:27:22.259Z,6240.00
2022-07-25T12:28:22.175Z,6680.00
2022-07-25T12:29:22.214Z,6760.00
2022-07-25T12:30:22.552Z,6696.00
2022-07-25T12:32:22.339Z,6960.00
2022-07-25T12:33:22.375Z,7072.00
2022-07-25T12:34:22.430Z,6892.00
2022-07-25T12:35:22.423Z,6756.00
2022-07-25T12:36:22.457Z,6752.00
2022-07-25T12:37:22.502Z,6884.00
2022-07-25T12:38:22.528Z,6944.00
2022-07-25T12:39:22.563Z,7148.00
2022-07-25T12:40:22.602Z,7236.00
2022-07-25T12:42:22.675Z,7152.00
2022-07-25T12:43:22.710Z,6832.00
2022-07-25T12:44:22.742Z,6336.00
2022-07-25T12:46:22.854Z,6480.00
2022-07-25T12:47:22.848Z,6208.00
2022-07-25T12:48:22.895Z,5944.00
2022-07-25T12:49:23.853Z,5892.00
2022-07-25T12:50:22.968Z,6184.00
2022-07-25T12:51:22.993Z,6956.00
2022-07-25T12:52:23.030Z,6916.00
2022-07-25T12:53:23.091Z,6876.00
2022-07-25T12:54:23.111Z,7008.00
2022-07-25T12:55:23.238Z,6800.00
2022-07-25T12:56:23.418Z,6996.00
2022-07-25T12:57:23.208Z,7096.00
2022-07-25T12:58:23.249Z,6800.00
2022-07-25T13:00:23.323Z,7260.00
2022-07-25T13:01:23.392Z,6588.00
2022-07-25T13:02:23.413Z,6148.00
2022-07-25T13:03:23.759Z,6148.00
2022-07-25T13:04:23.453Z,5756.00
2022-07-25T13:05:23.489Z,5568.00
2022-07-25T13:06:23.534Z,5704.00
2022-07-25T13:07:23.569Z,5864.00
2022-07-25T13:08:23.599Z,6328.00
2022-07-25T13:09:23.878Z,6556.00
2022-07-25T13:10:23.677Z,6728.00
2022-07-25T13:11:23.719Z,6908.00
2022-07-25T13:12:23.839Z,6640.00
2022-07-25T13:13:23.772Z,6572.00
2022-07-25T13:14:23.831Z,6236.00
2022-07-25T13:15:24.102Z,5756.00
2022-07-25T13:16:23.947Z,5636.00
2022-07-25T13:17:27.433Z,5492.00
2022-07-25T13:18:23.954Z,5756.00
2022-07-25T13:19:23.985Z,5692.00
2022-07-25T13:20:24.031Z,5796.00
2022-07-25T13:21:24.345Z,5772.00
2022-07-25T13:22:24.094Z,5732.00
2022-07-25T13:23:24.144Z,5736.00
2022-07-25T13:24:24.163Z,5900.00